LTBU/TEQ METAR and TAF weather

Enter ICAO airport designator
Station Type Date Time Source
LTBU METAR 2021/09/27 06:20 UTC NOAA

LTBU 270620Z 06009KT CAVOK 20/15 Q1019


Station Type Date Time Source
LTBU Decoded METAR 2021/09/27 06:20 UTC NOAA

Corlu, Turkey (LTBU) 41-08N 027-55E
Sep 27, 2021 - 02:20 AM EDT / 2021.09.27 0620 UTC
Wind: from the ENE (060 degrees) at 10 MPH (9 KT):0
Visibility: greater than 7 mile(s):0
Temperature: 68 F (20 C)
Dew Point: 59 F (15 C)
Relative Humidity: 72%
Pressure (altimeter): 30.09 in. Hg (1019 hPa)
ob: LTBU 270620Z 06009KT CAVOK 20/15 Q1019
cycle: 6

Station Type Date Time Source
LTBU TAF 2021/09/27 06:03 UTC NOAA

TAF LTBU 270440Z 2706/2806 05013KT CAVOK
BECMG 2721/2724 FEW025

Example: see airport list